createdAt,value
2023-06-17T00:01:38.896Z,7.28
2023-06-17T00:04:08.370Z,7.43
2023-06-17T00:06:36.383Z,8.20
2023-06-17T00:09:05.142Z,8.05
2023-06-17T00:11:33.556Z,7.75
2023-06-17T00:14:02.384Z,7.38
2023-06-17T00:16:33.850Z,7.60
2023-06-17T00:19:02.279Z,7.95
2023-06-17T00:21:32.456Z,6.90
2023-06-17T00:24:00.843Z,7.10
2023-06-17T00:26:28.828Z,7.40
2023-06-17T00:28:56.942Z,7.38
2023-06-17T00:31:25.018Z,9.43
2023-06-17T00:33:53.360Z,7.45
2023-06-17T00:36:21.359Z,8.30
2023-06-17T00:38:51.299Z,7.18
2023-06-17T00:41:19.889Z,8.65
2023-06-17T00:43:48.021Z,7.90
2023-06-17T00:46:26.453Z,7.57
2023-06-17T00:48:54.804Z,8.82
2023-06-17T00:51:22.942Z,7.57
2023-06-17T00:53:52.801Z,7.70
2023-06-17T00:56:21.148Z,7.32
2023-06-17T00:58:51.822Z,8.00
2023-06-17T01:01:20.612Z,8.07
2023-06-17T01:03:51.164Z,8.00
2023-06-17T01:06:27.869Z,7.75
2023-06-17T01:09:03.912Z,7.57
2023-06-17T01:11:34.331Z,8.88
2023-06-17T01:14:03.410Z,7.13
2023-06-17T01:16:33.306Z,6.95
2023-06-17T01:19:02.983Z,7.18
2023-06-17T01:21:32.658Z,8.00
2023-06-17T01:24:04.971Z,7.43
2023-06-17T01:26:36.009Z,7.10
2023-06-17T01:29:04.105Z,7.55
2023-06-17T01:31:32.699Z,7.28
2023-06-17T01:34:03.786Z,7.03
2023-06-17T01:36:38.028Z,7.00
2023-06-17T01:39:07.474Z,7.50
2023-06-17T01:41:41.866Z,8.05
2023-06-17T01:44:11.343Z,7.00
2023-06-17T01:46:40.632Z,6.82
2023-06-17T01:49:08.950Z,8.05
2023-06-17T01:51:37.078Z,7.40
2023-06-17T01:54:05.331Z,7.85
2023-06-17T01:56:33.749Z,6.82
2023-06-17T01:59:03.230Z,8.40
2023-06-17T02:01:31.368Z,7.60
2023-06-17T02:03:59.999Z,7.38
2023-06-17T02:06:28.320Z,7.22
2023-06-17T02:08:57.116Z,8.13
2023-06-17T02:11:25.135Z,7.20
2023-06-17T02:13:53.199Z,8.40
2023-06-17T02:16:22.847Z,8.02
2023-06-17T02:18:53.509Z,7.03
2023-06-17T02:21:21.627Z,7.30
2023-06-17T02:23:50.487Z,6.78
2023-06-17T02:26:18.616Z,6.50
2023-06-17T02:28:46.734Z,5.47
2023-06-17T02:31:15.884Z,6.90
2023-06-17T02:33:45.518Z,7.43
2023-06-17T02:36:15.546Z,7.43
2023-06-17T02:38:43.863Z,7.00
2023-06-17T02:41:14.705Z,7.13
2023-06-17T02:43:42.990Z,7.60
2023-06-17T02:46:10.982Z,8.68
2023-06-17T02:48:39.108Z,7.30
2023-06-17T02:51:08.855Z,8.20
2023-06-17T02:53:37.136Z,7.40
2023-06-17T02:56:06.022Z,7.00
2023-06-17T02:58:35.238Z,7.80
2023-06-17T03:03:37.718Z,7.90
2023-06-17T03:06:08.492Z,7.43
2023-06-17T03:08:42.001Z,7.47
2023-06-17T03:11:10.531Z,7.03
2023-06-17T03:13:41.741Z,6.68
2023-06-17T03:16:18.706Z,7.03
2023-06-17T03:18:48.266Z,7.45
2023-06-17T03:21:17.928Z,7.53
2023-06-17T03:23:46.920Z,6.57
2023-06-17T03:26:15.251Z,7.10
2023-06-17T03:28:43.849Z,7.72
2023-06-17T03:31:14.362Z,7.72
2023-06-17T03:33:42.421Z,7.20
2023-06-17T03:36:11.082Z,7.40
2023-06-17T03:38:40.659Z,7.35
2023-06-17T03:41:08.849Z,6.93
2023-06-17T03:43:36.931Z,7.82
2023-06-17T03:46:05.113Z,6.60
2023-06-17T03:48:33.360Z,7.47
2023-06-17T03:51:02.241Z,6.85
2023-06-17T03:53:30.394Z,7.38
2023-06-17T03:56:01.180Z,7.43
2023-06-17T03:58:30.031Z,7.40
2023-06-17T04:00:58.551Z,6.85
2023-06-17T04:03:27.952Z,6.22
2023-06-17T04:05:56.410Z,6.57
2023-06-17T04:08:24.946Z,7.78
2023-06-17T04:10:55.118Z,7.07
2023-06-17T04:13:24.420Z,7.40
2023-06-17T04:15:54.384Z,6.88
2023-06-17T04:18:23.076Z,6.28
2023-06-17T04:20:57.525Z,6.18
2023-06-17T04:23:28.949Z,7.13
2023-06-17T04:25:58.085Z,6.97
2023-06-17T04:28:32.888Z,6.65
2023-06-17T04:31:02.672Z,7.55
2023-06-17T04:33:39.014Z,6.75
2023-06-17T04:36:09.649Z,7.30
2023-06-17T04:38:40.229Z,6.97
2023-06-17T04:41:09.986Z,7.15
2023-06-17T04:43:39.571Z,7.22
2023-06-17T04:46:10.477Z,6.70
2023-06-17T04:48:39.976Z,7.03
2023-06-17T04:51:08.883Z,7.07
2023-06-17T04:53:40.014Z,7.13
2023-06-17T04:56:08.826Z,7.60
2023-06-17T04:58:39.783Z,6.65
2023-06-17T05:01:14.610Z,7.40
2023-06-17T05:03:43.192Z,7.20
2023-06-17T05:06:11.136Z,6.97
2023-06-17T05:08:39.173Z,7.57
2023-06-17T05:11:07.917Z,8.30
2023-06-17T05:13:41.801Z,6.82
2023-06-17T05:16:10.833Z,6.30
2023-06-17T05:18:41.119Z,7.90
2023-06-17T05:21:09.172Z,7.45
2023-06-17T05:23:37.714Z,7.20
2023-06-17T05:26:06.568Z,7.30
2023-06-17T05:28:34.849Z,6.97
2023-06-17T05:31:04.241Z,7.32
2023-06-17T05:33:32.457Z,6.85
2023-06-17T05:36:01.587Z,6.68
2023-06-17T05:38:31.572Z,6.47
2023-06-17T05:40:59.627Z,7.25
2023-06-17T05:43:29.163Z,6.70
2023-06-17T05:45:58.338Z,6.68
2023-06-17T05:48:28.134Z,7.05
2023-06-17T05:50:56.182Z,6.55
2023-06-17T05:53:25.470Z,6.93
2023-06-17T05:55:54.123Z,7.53
2023-06-17T05:58:22.519Z,7.90
2023-06-17T06:00:55.637Z,7.38
2023-06-17T06:03:24.005Z,7.25
2023-06-17T06:05:53.432Z,7.50
2023-06-17T06:08:21.670Z,6.70
2023-06-17T06:10:49.698Z,7.40
2023-06-17T06:13:17.832Z,7.30
2023-06-17T06:15:46.192Z,7.30
2023-06-17T06:18:15.811Z,7.63
2023-06-17T06:20:44.251Z,7.63
2023-06-17T06:23:13.830Z,6.50
2023-06-17T06:25:42.814Z,7.07
2023-06-17T06:28:11.203Z,6.72
2023-06-17T06:30:39.441Z,6.38
2023-06-17T06:33:07.762Z,7.03
2023-06-17T06:35:36.026Z,7.15
2023-06-17T06:38:05.038Z,6.35
2023-06-17T06:40:35.515Z,6.63
2023-06-17T06:43:03.880Z,7.03
2023-06-17T06:45:55.219Z,7.18
2023-06-17T06:48:24.113Z,6.40
2023-06-17T06:50:52.518Z,7.05
2023-06-17T06:53:25.179Z,7.03
2023-06-17T06:55:57.871Z,7.60
2023-06-17T06:58:27.261Z,7.57
2023-06-17T07:00:55.605Z,7.03
2023-06-17T07:03:24.536Z,7.17
2023-06-17T07:05:52.582Z,6.50
2023-06-17T07:08:20.846Z,7.05
2023-06-17T07:10:50.058Z,7.13
2023-06-17T07:13:19.954Z,6.00
2023-06-17T07:15:50.500Z,6.00
2023-06-17T07:18:20.306Z,5.60
2023-06-17T07:20:48.545Z,5.87
2023-06-17T07:23:16.774Z,5.93
2023-06-17T07:25:45.081Z,6.30
2023-06-17T07:28:14.643Z,5.17
2023-06-17T07:30:44.461Z,5.60
2023-06-17T07:33:13.116Z,5.50
2023-06-17T07:35:41.292Z,5.70
2023-06-17T07:38:09.360Z,5.63
2023-06-17T07:40:38.521Z,5.60
2023-06-17T07:43:06.696Z,5.10
2023-06-17T07:45:34.718Z,5.50
2023-06-17T07:48:04.280Z,5.37
2023-06-17T07:50:32.771Z,5.13
2023-06-17T07:53:00.809Z,5.83
2023-06-17T07:55:30.330Z,5.07
2023-06-17T07:57:58.514Z,6.20
2023-06-17T08:00:26.673Z,5.00
2023-06-17T08:02:55.227Z,5.60
2023-06-17T08:05:24.945Z,5.20
2023-06-17T08:07:53.407Z,5.60
2023-06-17T08:10:21.559Z,6.07
2023-06-17T08:12:52.585Z,6.90
2023-06-17T08:15:20.781Z,7.00
2023-06-17T08:17:49.966Z,5.03
2023-06-17T08:20:18.210Z,6.50
2023-06-17T08:22:48.155Z,7.30
2023-06-17T08:25:16.238Z,6.40
2023-06-17T08:27:49.072Z,6.13
2023-06-17T08:30:17.523Z,5.97
2023-06-17T08:32:46.038Z,6.20
2023-06-17T08:35:15.486Z,5.90
2023-06-17T08:37:43.876Z,6.30
2023-06-17T08:40:15.754Z,5.73
2023-06-17T08:42:44.555Z,6.00
2023-06-17T08:45:12.810Z,5.70
2023-06-17T08:47:40.968Z,6.40
2023-06-17T08:50:10.371Z,5.63
2023-06-17T08:52:40.880Z,5.57
2023-06-17T08:55:10.139Z,6.10
2023-06-17T08:57:39.516Z,6.90
2023-06-17T09:00:12.407Z,6.20
2023-06-17T09:02:43.306Z,6.90
2023-06-17T09:05:11.702Z,4.90
2023-06-17T09:07:40.097Z,5.80
2023-06-17T09:10:09.718Z,6.13
2023-06-17T09:12:40.838Z,5.70
2023-06-17T09:15:10.086Z,6.63
2023-06-17T09:17:41.801Z,5.60
2023-06-17T09:20:11.549Z,5.63
2023-06-17T09:22:43.854Z,6.87
2023-06-17T09:25:14.837Z,5.80
2023-06-17T09:28:03.104Z,6.20
2023-06-17T09:30:38.824Z,7.17
2023-06-17T09:33:19.178Z,5.70
2023-06-17T09:35:49.350Z,6.13
2023-06-17T09:38:19.513Z,6.83
2023-06-17T09:40:50.708Z,6.33
2023-06-17T09:45:56.129Z,5.00
2023-06-17T09:48:31.662Z,6.17
2023-06-17T09:51:00.561Z,6.00
2023-06-17T09:53:30.380Z,5.50
2023-06-17T09:56:01.093Z,5.27
2023-06-17T09:58:32.578Z,6.10
2023-06-17T10:01:07.501Z,6.03
2023-06-17T10:03:36.305Z,6.67
2023-06-17T10:06:09.362Z,5.60
2023-06-17T10:08:38.679Z,5.80
2023-06-17T10:11:06.990Z,5.47
2023-06-17T10:13:38.686Z,5.90
2023-06-17T10:16:10.638Z,5.70
2023-06-17T10:18:41.096Z,5.80
2023-06-17T10:21:13.740Z,6.40
2023-06-17T10:23:43.648Z,5.63
2023-06-17T10:26:14.569Z,4.70
2023-06-17T10:28:59.134Z,4.90
2023-06-17T10:31:29.697Z,5.37
2023-06-17T10:34:00.630Z,5.00
2023-06-17T10:36:29.585Z,5.03
2023-06-17T10:38:58.921Z,5.10
2023-06-17T10:42:00.703Z,5.00
2023-06-17T10:44:45.914Z,5.30
2023-06-17T10:47:20.424Z,5.13
2023-06-17T10:49:50.132Z,6.27
2023-06-17T10:52:19.466Z,5.70
2023-06-17T10:54:52.446Z,5.53
2023-06-17T10:57:34.754Z,6.20
2023-06-17T11:00:10.046Z,6.07
2023-06-17T11:02:39.414Z,6.17
2023-06-17T11:05:08.943Z,5.43
2023-06-17T11:07:37.137Z,5.77
2023-06-17T11:10:06.240Z,6.40
2023-06-17T11:12:35.543Z,6.60
2023-06-17T11:15:08.161Z,6.07
2023-06-17T11:17:36.177Z,6.67
2023-06-17T11:20:06.919Z,6.07
2023-06-17T11:22:38.414Z,5.37
2023-06-17T11:25:07.322Z,6.83
2023-06-17T11:27:35.780Z,6.67
2023-06-17T11:30:06.003Z,5.10
2023-06-17T11:32:34.850Z,5.40
2023-06-17T11:35:05.369Z,5.20
2023-06-17T11:37:33.464Z,5.27
2023-06-17T11:40:01.589Z,4.77
2023-06-17T11:42:30.019Z,5.33
2023-06-17T11:44:58.512Z,4.47
2023-06-17T11:47:35.570Z,4.73
2023-06-17T11:50:07.033Z,5.70
2023-06-17T11:52:35.439Z,4.80
2023-06-17T11:55:05.217Z,5.00
2023-06-17T11:57:33.915Z,4.40
2023-06-17T12:00:06.681Z,5.60
2023-06-17T12:02:42.288Z,4.57
2023-06-17T12:05:11.984Z,5.43
2023-06-17T12:07:41.637Z,5.13
2023-06-17T12:10:13.386Z,5.03
2023-06-17T12:12:42.243Z,4.73
2023-06-17T12:17:45.782Z,6.20
2023-06-17T12:20:15.866Z,5.60
2023-06-17T12:22:44.593Z,5.80
2023-06-17T12:25:13.572Z,4.90
2023-06-17T12:27:42.499Z,5.50
2023-06-17T12:30:11.630Z,5.87
2023-06-17T12:32:40.976Z,6.00
2023-06-17T12:35:12.755Z,5.70
2023-06-17T12:37:43.384Z,5.43
2023-06-17T12:40:12.645Z,5.70
2023-06-17T12:42:41.011Z,6.40
2023-06-17T12:45:10.344Z,6.27
2023-06-17T12:47:38.875Z,5.70
2023-06-17T12:50:08.024Z,6.07
2023-06-17T12:52:37.739Z,5.67
2023-06-17T12:55:06.991Z,6.40
2023-06-17T12:57:35.782Z,5.53
2023-06-17T13:00:06.078Z,5.90
2023-06-17T13:02:36.944Z,6.27
2023-06-17T13:05:06.648Z,5.97
2023-06-17T13:07:34.855Z,5.90
2023-06-17T13:10:05.066Z,6.00
2023-06-17T13:12:33.112Z,5.67
2023-06-17T13:15:04.237Z,5.83
2023-06-17T13:17:32.917Z,5.87
2023-06-17T13:20:00.955Z,6.20
2023-06-17T13:22:29.232Z,5.73
2023-06-17T13:24:57.245Z,6.20
2023-06-17T13:27:27.763Z,6.50
2023-06-17T13:29:56.276Z,6.40
2023-06-17T13:32:24.862Z,6.20
2023-06-17T13:34:53.179Z,6.70
2023-06-17T13:37:21.657Z,6.40
2023-06-17T13:39:49.754Z,6.13
2023-06-17T13:42:18.550Z,5.63
2023-06-17T13:44:48.433Z,5.50
2023-06-17T13:47:16.950Z,6.90
2023-06-17T13:49:45.243Z,6.80
2023-06-17T13:52:14.038Z,6.27
2023-06-17T13:54:42.643Z,6.30
2023-06-17T13:57:11.857Z,6.23
2023-06-17T13:59:41.268Z,6.80
2023-06-17T14:02:11.159Z,5.90
2023-06-17T14:04:39.617Z,6.07
2023-06-17T14:07:08.161Z,6.37
2023-06-17T14:09:39.021Z,7.10
2023-06-17T14:12:08.868Z,6.07
2023-06-17T14:14:37.361Z,7.13
2023-06-17T14:17:05.911Z,6.27
2023-06-17T14:19:36.739Z,6.23
2023-06-17T14:22:07.223Z,5.90
2023-06-17T14:24:38.890Z,6.73
2023-06-17T14:27:27.343Z,5.70
2023-06-17T14:29:55.748Z,5.70
2023-06-17T14:32:24.118Z,6.50
2023-06-17T14:34:53.734Z,6.87
2023-06-17T14:37:22.098Z,6.97
2023-06-17T14:39:50.108Z,6.20
2023-06-17T14:42:18.421Z,6.47
2023-06-17T14:44:46.472Z,6.13
2023-06-17T14:47:14.705Z,6.50
2023-06-17T14:49:42.741Z,6.20
2023-06-17T14:52:12.920Z,7.30
2023-06-17T14:54:41.029Z,7.60
2023-06-17T14:57:10.683Z,7.00
2023-06-17T14:59:39.063Z,6.80
2023-06-17T15:02:22.225Z,7.00
2023-06-17T15:04:50.381Z,6.73
2023-06-17T15:07:19.848Z,7.50
2023-06-17T15:09:48.244Z,6.73
2023-06-17T15:12:16.502Z,7.40
2023-06-17T15:14:44.922Z,6.60
2023-06-17T15:17:13.586Z,6.50
2023-06-17T15:19:43.042Z,7.77
2023-06-17T15:22:11.251Z,6.80
2023-06-17T15:24:41.325Z,8.40
2023-06-17T15:27:09.478Z,7.03
2023-06-17T15:29:37.870Z,7.97
2023-06-17T15:32:07.042Z,7.60
2023-06-17T15:34:35.315Z,7.80
2023-06-17T15:37:03.576Z,7.80
2023-06-17T15:39:32.675Z,7.93
2023-06-17T15:42:02.224Z,8.00
2023-06-17T15:44:31.335Z,7.00
2023-06-17T15:46:59.335Z,6.97
2023-06-17T15:49:27.640Z,7.40
2023-06-17T15:51:56.033Z,7.90
2023-06-17T15:54:26.490Z,7.97
2023-06-17T15:56:54.774Z,6.93
2023-06-17T15:59:24.328Z,8.23
2023-06-17T16:01:52.401Z,8.10
2023-06-17T16:04:34.452Z,8.63
2023-06-17T16:07:03.155Z,8.60
2023-06-17T16:09:32.903Z,8.40
2023-06-17T16:12:01.574Z,7.37
2023-06-17T16:14:31.500Z,8.30
2023-06-17T16:16:59.768Z,8.10
2023-06-17T16:19:27.975Z,8.77
2023-06-17T16:21:56.639Z,7.47
2023-06-17T16:24:24.883Z,8.17
2023-06-17T16:26:53.183Z,8.17
2023-06-17T16:29:21.508Z,8.03
2023-06-17T16:31:51.226Z,7.60
2023-06-17T16:34:19.743Z,8.63
2023-06-17T16:36:47.872Z,8.73
2023-06-17T16:39:16.229Z,6.43
2023-06-17T16:41:44.394Z,7.23
2023-06-17T16:44:12.549Z,7.50
2023-06-17T16:46:41.585Z,7.10
2023-06-17T16:49:11.400Z,9.00
2023-06-17T16:51:39.994Z,7.67
2023-06-17T16:54:08.389Z,9.10
2023-06-17T16:56:36.870Z,8.30
2023-06-17T16:59:05.143Z,8.43
2023-06-17T17:01:33.628Z,9.00
2023-06-17T17:04:03.059Z,8.67
2023-06-17T17:06:32.571Z,8.47
2023-06-17T17:09:00.661Z,7.20
2023-06-17T17:11:28.726Z,7.33
2023-06-17T17:13:57.303Z,7.47
2023-06-17T17:16:25.567Z,7.57
2023-06-17T17:18:53.719Z,7.50
2023-06-17T17:21:22.203Z,8.73
2023-06-17T17:23:52.098Z,7.20
2023-06-17T17:26:20.380Z,8.20
2023-06-17T17:28:48.474Z,8.77
2023-06-17T17:31:16.757Z,7.70
2023-06-17T17:33:45.384Z,7.87
2023-06-17T17:36:14.259Z,7.83
2023-06-17T17:38:43.533Z,7.83
2023-06-17T17:41:13.366Z,6.70
2023-06-17T17:43:41.519Z,7.47
2023-06-17T17:46:10.451Z,7.90
2023-06-17T17:48:38.783Z,7.87
2023-06-17T17:51:06.925Z,7.80
2023-06-17T17:53:35.156Z,7.83
2023-06-17T17:56:03.294Z,7.27
2023-06-17T17:58:33.026Z,6.67
2023-06-17T18:01:03.143Z,7.87
2023-06-17T18:03:32.574Z,6.73
2023-06-17T18:06:00.878Z,7.30
2023-06-17T18:08:31.271Z,8.03
2023-06-17T18:10:59.584Z,7.70
2023-06-17T18:13:28.253Z,8.20
2023-06-17T18:15:57.843Z,7.17
2023-06-17T18:18:25.989Z,7.53
2023-06-17T18:20:54.082Z,7.43
2023-06-17T18:23:22.350Z,7.97
2023-06-17T18:25:50.546Z,8.23
2023-06-17T18:28:18.772Z,7.00
2023-06-17T18:30:46.994Z,7.03
2023-06-17T18:33:16.526Z,8.43
2023-06-17T18:35:44.433Z,8.10
2023-06-17T18:38:13.152Z,8.90
2023-06-17T18:40:41.278Z,8.67
2023-06-17T18:43:09.698Z,8.77
2023-06-17T18:45:37.615Z,8.10
2023-06-17T18:48:07.415Z,7.63
2023-06-17T18:50:37.959Z,8.63
2023-06-17T18:53:07.025Z,7.60
2023-06-17T18:55:35.128Z,7.93
2023-06-17T18:58:03.322Z,8.27
2023-06-17T19:00:35.217Z,7.87
2023-06-17T19:03:09.004Z,8.63
2023-06-17T19:05:43.947Z,8.53
2023-06-17T19:08:14.029Z,8.87
2023-06-17T19:10:43.277Z,8.40
2023-06-17T19:13:11.650Z,7.50
2023-06-17T19:15:41.063Z,8.50
2023-06-17T19:18:09.294Z,9.00
2023-06-17T19:20:37.314Z,8.90
2023-06-17T19:23:07.988Z,8.03
2023-06-17T19:25:36.157Z,9.20
2023-06-17T19:28:05.076Z,9.30
2023-06-17T19:30:33.205Z,7.93
2023-06-17T19:33:01.305Z,8.33
2023-06-17T19:35:29.355Z,7.07
2023-06-17T19:37:57.329Z,7.93
2023-06-17T19:40:27.140Z,7.30
2023-06-17T19:42:55.402Z,8.50
2023-06-17T19:45:29.165Z,8.80
2023-06-17T19:47:59.068Z,8.57
2023-06-17T19:50:27.731Z,9.10
2023-06-17T19:52:56.095Z,8.13
2023-06-17T19:55:25.129Z,8.50
2023-06-17T19:57:54.765Z,8.93
2023-06-17T20:00:23.202Z,8.47
2023-06-17T20:02:52.756Z,8.77
2023-06-17T20:05:20.934Z,7.53
2023-06-17T20:07:50.102Z,8.40
2023-06-17T20:10:18.093Z,8.60
2023-06-17T20:12:46.480Z,7.77
2023-06-17T20:15:16.190Z,8.07
2023-06-17T20:17:44.182Z,8.57
2023-06-17T20:20:14.985Z,7.80
2023-06-17T20:22:43.480Z,8.73
2023-06-17T20:25:11.748Z,8.10
2023-06-17T20:27:41.145Z,7.10
2023-06-17T20:30:10.432Z,7.30
2023-06-17T20:32:40.026Z,8.20
2023-06-17T20:35:08.765Z,7.70
2023-06-17T20:37:37.665Z,7.20
2023-06-17T20:40:06.885Z,7.90
2023-06-17T20:42:35.068Z,7.60
2023-06-17T20:45:03.272Z,7.30
2023-06-17T20:47:32.012Z,8.20
2023-06-17T20:50:01.447Z,7.60
2023-06-17T20:52:29.692Z,8.40
2023-06-17T20:54:57.826Z,8.00
2023-06-17T20:57:25.819Z,7.93
2023-06-17T20:59:54.694Z,7.80
2023-06-17T21:02:22.719Z,8.47
2023-06-17T21:04:50.841Z,8.37
2023-06-17T21:07:20.525Z,9.60
2023-06-17T21:09:48.998Z,8.50
2023-06-17T21:12:17.868Z,8.53
2023-06-17T21:14:47.033Z,7.60
2023-06-17T21:17:15.275Z,8.63
2023-06-17T21:19:43.491Z,7.90
2023-06-17T21:22:11.838Z,8.93
2023-06-17T21:24:41.963Z,7.90
2023-06-17T21:27:10.893Z,7.77
2023-06-17T21:29:39.451Z,7.97
2023-06-17T21:32:10.049Z,7.70
2023-06-17T21:34:38.522Z,9.57
2023-06-17T21:37:07.011Z,9.47
2023-06-17T21:39:35.290Z,9.60
2023-06-17T21:42:05.887Z,9.37
2023-06-17T21:44:34.839Z,10.13
2023-06-17T21:47:03.259Z,8.33
2023-06-17T21:49:31.403Z,9.60
2023-06-17T21:51:59.619Z,9.27
2023-06-17T21:54:27.728Z,9.33
2023-06-17T21:56:55.734Z,9.67
2023-06-17T21:59:25.277Z,8.50
2023-06-17T22:01:53.439Z,9.60
2023-06-17T22:04:21.834Z,9.73
2023-06-17T22:06:49.918Z,9.80
2023-06-17T22:09:18.141Z,11.00
2023-06-17T22:11:46.439Z,9.70
2023-06-17T22:14:14.862Z,9.18
2023-06-17T22:16:44.402Z,9.85
2023-06-17T22:19:12.647Z,9.60
2023-06-17T22:21:40.769Z,9.25
2023-06-17T22:24:10.720Z,9.05
2023-06-17T22:26:40.260Z,10.00
2023-06-17T22:29:09.203Z,9.65
2023-06-17T22:31:37.479Z,10.63
2023-06-17T22:34:06.919Z,10.30
2023-06-17T22:36:34.967Z,9.60
2023-06-17T22:39:03.086Z,8.75
2023-06-17T22:41:31.246Z,9.85
2023-06-17T22:43:59.640Z,9.57
2023-06-17T22:46:27.815Z,9.13
2023-06-17T22:48:56.116Z,10.20
2023-06-17T22:51:26.948Z,9.20
2023-06-17T22:53:55.430Z,9.13
2023-06-17T22:56:23.654Z,9.27
2023-06-17T22:58:51.650Z,8.88
2023-06-17T23:01:20.144Z,9.60
2023-06-17T23:03:48.270Z,8.98
2023-06-17T23:06:16.523Z,9.95
2023-06-17T23:08:46.143Z,8.48
2023-06-17T23:11:14.136Z,8.88
2023-06-17T23:13:42.302Z,9.07
2023-06-17T23:16:10.402Z,8.98
2023-06-17T23:18:38.962Z,9.35
2023-06-17T23:21:08.406Z,9.25
2023-06-17T23:23:37.584Z,9.13
2023-06-17T23:26:07.143Z,8.32
2023-06-17T23:28:35.512Z,9.95
2023-06-17T23:31:03.670Z,9.85
2023-06-17T23:33:32.165Z,9.50
2023-06-17T23:36:00.161Z,10.48
2023-06-17T23:38:29.399Z,10.27
2023-06-17T23:40:57.596Z,9.52
2023-06-17T23:43:27.215Z,9.50
2023-06-17T23:45:56.854Z,9.30
2023-06-17T23:48:25.703Z,9.23
2023-06-17T23:50:53.788Z,9.75
2023-06-17T23:53:22.183Z,10.15
2023-06-17T23:55:50.301Z,8.75
2023-06-17T23:58:18.576Z,9.68
